createdAt,value
2023-03-06T00:00:30.302Z,7.50
2023-03-06T00:01:33.567Z,7.70
2023-03-06T00:02:30.255Z,7.70
2023-03-06T00:03:30.298Z,7.40
2023-03-06T00:13:19.407Z,7.90
2023-03-06T00:14:20.384Z,7.50
2023-03-06T00:15:20.376Z,7.80
2023-03-06T00:16:20.453Z,7.90
2023-03-06T00:17:20.404Z,7.70
2023-03-06T00:18:20.355Z,8.20
2023-03-06T00:19:20.323Z,7.70
2023-03-06T00:20:20.307Z,7.40
2023-03-06T00:21:20.318Z,7.60
2023-03-06T00:22:20.323Z,7.70
2023-03-06T00:23:20.268Z,7.60
2023-03-06T00:24:20.254Z,7.70
2023-03-06T00:25:20.286Z,7.40
2023-03-06T00:26:20.225Z,7.40
2023-03-06T00:27:20.238Z,7.20
2023-03-06T00:28:20.202Z,8.10
2023-03-06T00:29:20.188Z,7.60
2023-03-06T00:30:20.204Z,7.30
2023-03-06T00:31:20.175Z,7.30
2023-03-06T00:32:20.186Z,7.20
2023-03-06T00:33:20.135Z,7.60
2023-03-06T00:34:20.150Z,7.30
2023-03-06T00:35:20.213Z,7.30
2023-03-06T00:36:20.092Z,7.70
2023-03-06T00:37:20.088Z,7.70
2023-03-06T00:38:20.216Z,7.20
2023-03-06T00:39:20.044Z,7.20
2023-03-06T00:40:20.072Z,6.90
2023-03-06T00:41:20.029Z,7.40
2023-03-06T00:42:20.035Z,7.20
2023-03-06T00:43:20.010Z,7.00
2023-03-06T00:44:20.009Z,7.10
2023-03-06T00:45:20.051Z,7.40
2023-03-06T00:46:19.959Z,7.60
2023-03-06T00:47:20.003Z,6.70
2023-03-06T00:48:19.934Z,7.70
2023-03-06T00:49:19.945Z,7.20
2023-03-06T00:50:19.923Z,7.30
2023-03-06T00:51:19.907Z,7.30
2023-03-06T00:52:19.905Z,6.70
2023-03-06T00:53:19.887Z,6.90
2023-03-06T00:54:19.948Z,6.50
2023-03-06T00:55:19.885Z,7.20
2023-03-06T00:56:20.111Z,6.70
2023-03-06T00:57:19.837Z,7.00
2023-03-06T00:58:19.801Z,6.90
2023-03-06T00:59:19.782Z,7.40
2023-03-06T01:00:19.788Z,6.80
2023-03-06T01:01:19.848Z,6.50
2023-03-06T01:02:19.814Z,6.80
2023-03-06T01:03:19.729Z,7.00
2023-03-06T01:04:19.710Z,6.70
2023-03-06T01:05:19.705Z,7.00
2023-03-06T01:06:19.695Z,6.90
2023-03-06T01:07:19.689Z,6.90
2023-03-06T01:08:19.659Z,7.20
2023-03-06T01:09:19.660Z,7.00
2023-03-06T01:10:19.622Z,6.90
2023-03-06T01:11:19.632Z,6.40
2023-03-06T01:12:21.360Z,6.40
2023-03-06T01:13:19.603Z,7.00
2023-03-06T01:14:19.567Z,7.00
2023-03-06T01:15:19.606Z,7.00
2023-03-06T01:16:19.614Z,7.20
2023-03-06T01:17:19.550Z,6.80
2023-03-06T01:18:19.548Z,7.10
2023-03-06T01:19:19.530Z,7.00
2023-03-06T01:20:19.500Z,7.40
2023-03-06T01:21:19.494Z,7.20
2023-03-06T01:22:19.578Z,7.40
2023-03-06T01:23:19.498Z,7.30
2023-03-06T01:24:19.450Z,7.30
2023-03-06T01:25:19.449Z,7.20
2023-03-06T01:26:19.405Z,7.10
2023-03-06T01:27:19.406Z,7.20
2023-03-06T01:28:19.398Z,7.40
2023-03-06T01:29:19.390Z,6.90
2023-03-06T01:30:19.357Z,7.10
2023-03-06T01:31:19.403Z,8.10
2023-03-06T01:32:19.354Z,7.40
2023-03-06T01:33:19.323Z,7.30
2023-03-06T01:34:19.304Z,7.60
2023-03-06T01:35:19.326Z,7.20
2023-03-06T01:36:19.277Z,7.10
2023-03-06T01:37:19.327Z,7.90
2023-03-06T01:38:19.279Z,7.30
2023-03-06T01:39:19.244Z,7.00
2023-03-06T01:40:19.225Z,6.60
2023-03-06T01:41:19.217Z,7.20
2023-03-06T01:42:19.223Z,7.20
2023-03-06T01:43:19.207Z,7.50
2023-03-06T01:44:19.213Z,7.20
2023-03-06T01:45:19.196Z,7.90
2023-03-06T01:46:19.149Z,7.40
2023-03-06T01:47:19.146Z,8.20
2023-03-06T01:48:19.141Z,7.50
2023-03-06T01:49:19.128Z,7.80
2023-03-06T01:50:19.108Z,7.50
2023-03-06T01:51:19.084Z,7.70
2023-03-06T01:52:40.095Z,7.20
2023-03-06T01:53:19.091Z,7.50
2023-03-06T01:54:19.102Z,8.00
2023-03-06T01:55:19.054Z,7.60
2023-03-06T01:56:19.026Z,7.90
2023-03-06T01:57:19.019Z,8.20
2023-03-06T01:58:19.011Z,8.20
2023-03-06T01:59:19.031Z,7.60
2023-03-06T02:00:18.978Z,8.10
2023-03-06T02:01:19.005Z,8.00
2023-03-06T02:02:19.067Z,8.30
2023-03-06T02:03:18.955Z,8.30
2023-03-06T02:04:18.922Z,8.20
2023-03-06T02:05:18.909Z,8.40
2023-03-06T02:06:19.100Z,8.50
2023-03-06T02:07:18.883Z,8.40
2023-03-06T02:08:18.865Z,9.00
2023-03-06T02:09:18.853Z,8.40
2023-03-06T02:10:18.850Z,9.30
2023-03-06T02:11:18.923Z,9.30
2023-03-06T02:12:18.827Z,9.00
2023-03-06T02:13:18.984Z,9.60
2023-03-06T02:14:18.845Z,9.00
2023-03-06T02:15:18.803Z,8.90
2023-03-06T02:16:18.779Z,9.10
2023-03-06T02:17:18.816Z,9.20
2023-03-06T02:18:18.738Z,8.60
2023-03-06T02:19:18.742Z,9.70
2023-03-06T02:20:18.691Z,9.30
2023-03-06T02:21:18.697Z,9.00
2023-03-06T02:22:18.677Z,9.50
2023-03-06T02:23:18.679Z,9.70
2023-03-06T02:24:18.648Z,9.60
2023-03-06T02:25:18.653Z,9.40
2023-03-06T02:26:18.619Z,9.80
2023-03-06T02:27:18.636Z,9.40
2023-03-06T02:28:18.627Z,9.50
2023-03-06T02:29:18.600Z,9.60
2023-03-06T02:30:18.561Z,10.00
2023-03-06T02:31:18.673Z,9.80
2023-03-06T02:32:18.596Z,10.10
2023-03-06T02:33:18.555Z,10.00
2023-03-06T02:34:18.537Z,9.40
2023-03-06T02:35:18.518Z,9.50
2023-03-06T02:36:18.472Z,10.00
2023-03-06T02:37:18.480Z,10.20
2023-03-06T02:38:18.486Z,9.70
2023-03-06T02:39:18.460Z,10.10
2023-03-06T02:40:18.452Z,10.70
2023-03-06T02:41:18.431Z,9.60
2023-03-06T02:42:18.421Z,10.20
2023-03-06T02:43:18.443Z,9.90
2023-03-06T02:44:18.447Z,10.40
2023-03-06T02:45:18.436Z,9.40
2023-03-06T02:46:18.454Z,9.40
2023-03-06T02:47:18.357Z,9.10
2023-03-06T02:48:18.372Z,9.10
2023-03-06T02:49:18.362Z,9.20
2023-03-06T02:50:18.375Z,9.00
2023-03-06T02:51:18.286Z,9.70
2023-03-06T02:52:18.307Z,8.90
2023-03-06T02:53:18.406Z,9.00
2023-03-06T02:54:18.255Z,9.00
2023-03-06T02:55:18.229Z,9.00
2023-03-06T02:56:18.205Z,8.70
2023-03-06T02:57:18.200Z,8.30
2023-03-06T02:58:18.202Z,8.50
2023-03-06T02:59:18.176Z,9.00
2023-03-06T03:00:18.178Z,8.20
2023-03-06T03:01:18.145Z,9.20
2023-03-06T03:02:18.137Z,8.40
2023-03-06T03:03:18.129Z,8.20
2023-03-06T03:04:18.217Z,8.70
2023-03-06T03:05:18.112Z,9.20
2023-03-06T03:06:18.092Z,8.80
2023-03-06T03:07:18.076Z,8.20
2023-03-06T03:08:18.096Z,8.70
2023-03-06T03:09:18.061Z,8.30
2023-03-06T03:10:18.025Z,9.00
2023-03-06T03:11:18.017Z,9.20
2023-03-06T03:12:18.007Z,9.20
2023-03-06T03:13:17.984Z,8.50
2023-03-06T03:14:18.042Z,9.10
2023-03-06T03:15:18.017Z,9.20
2023-03-06T03:16:18.036Z,9.30
2023-03-06T03:17:17.962Z,9.80
2023-03-06T03:18:17.933Z,8.90
2023-03-06T03:19:17.911Z,9.80
2023-03-06T03:20:17.935Z,9.10
2023-03-06T03:21:17.893Z,9.20
2023-03-06T03:22:17.856Z,10.00
2023-03-06T03:23:17.868Z,8.90
2023-03-06T03:24:17.943Z,9.40
2023-03-06T03:25:17.848Z,9.80
2023-03-06T03:26:17.829Z,9.90
2023-03-06T03:27:17.807Z,9.90
2023-03-06T03:28:17.787Z,9.30
2023-03-06T03:29:17.813Z,9.60
2023-03-06T03:30:17.749Z,10.00
2023-03-06T03:31:17.900Z,10.30
2023-03-06T03:32:17.797Z,10.40
2023-03-06T03:33:17.743Z,10.80
2023-03-06T03:34:17.707Z,11.30
2023-03-06T03:35:17.692Z,10.90
2023-03-06T03:36:17.721Z,11.00
2023-03-06T03:37:17.673Z,11.00
2023-03-06T03:38:17.663Z,11.00
2023-03-06T03:39:17.641Z,10.70
2023-03-06T03:40:17.638Z,11.50
2023-03-06T03:41:17.611Z,10.90
2023-03-06T03:42:17.802Z,11.40
2023-03-06T03:43:17.604Z,12.50
2023-03-06T03:44:17.657Z,11.10
2023-03-06T03:45:17.574Z,11.90
2023-03-06T03:46:17.586Z,12.20
2023-03-06T03:47:17.537Z,11.60
2023-03-06T03:48:17.521Z,12.20
2023-03-06T03:49:17.525Z,11.30
2023-03-06T03:50:17.511Z,11.20
2023-03-06T03:51:17.466Z,12.40
2023-03-06T03:52:17.469Z,11.60
2023-03-06T03:53:17.457Z,11.50
2023-03-06T03:54:17.450Z,11.80
2023-03-06T03:55:17.436Z,13.00
2023-03-06T03:56:17.413Z,12.60
2023-03-06T03:57:17.402Z,12.20
2023-03-06T03:58:17.394Z,12.00
2023-03-06T03:59:17.429Z,11.80
2023-03-06T04:00:17.362Z,11.80
2023-03-06T04:01:17.331Z,12.60
2023-03-06T04:02:17.357Z,12.00
2023-03-06T04:03:17.320Z,11.40
2023-03-06T04:04:17.324Z,11.50
2023-03-06T04:05:17.281Z,11.80
2023-03-06T04:06:17.270Z,11.20
2023-03-06T04:07:17.297Z,10.90
2023-03-06T04:08:17.258Z,10.80
2023-03-06T04:09:17.524Z,10.80
2023-03-06T04:10:17.214Z,10.50
2023-03-06T04:11:17.221Z,11.30
2023-03-06T04:12:17.188Z,11.40
2023-03-06T04:13:17.178Z,11.60
2023-03-06T04:14:17.214Z,11.30
2023-03-06T04:15:17.154Z,11.30
2023-03-06T04:16:17.182Z,11.30
2023-03-06T04:17:17.157Z,11.80
2023-03-06T04:18:17.109Z,11.60
2023-03-06T04:19:17.108Z,11.40
2023-03-06T04:20:17.095Z,12.30
2023-03-06T04:21:17.051Z,11.70
2023-03-06T04:22:17.071Z,11.50
2023-03-06T04:23:17.103Z,11.50
2023-03-06T04:24:17.061Z,11.60
2023-03-06T04:25:17.057Z,11.00
2023-03-06T04:26:17.005Z,11.70
2023-03-06T04:27:16.997Z,10.90
2023-03-06T04:28:17.050Z,10.80
2023-03-06T04:29:16.956Z,11.40
2023-03-06T04:30:17.008Z,11.70
2023-03-06T04:31:16.937Z,10.90
2023-03-06T04:32:17.026Z,10.60
2023-03-06T04:33:16.987Z,10.00
2023-03-06T04:34:16.893Z,10.50
2023-03-06T04:35:16.892Z,11.30
2023-03-06T04:36:16.866Z,10.20
2023-03-06T04:37:16.860Z,10.90
2023-03-06T04:38:16.849Z,10.40
2023-03-06T04:39:16.824Z,10.40
2023-03-06T04:40:16.833Z,10.40
2023-03-06T04:41:16.797Z,10.60
2023-03-06T04:42:16.849Z,10.20
2023-03-06T04:43:16.776Z,11.00
2023-03-06T04:44:16.799Z,10.30
2023-03-06T04:45:16.750Z,11.20
2023-03-06T04:46:16.741Z,11.60
2023-03-06T04:47:19.062Z,10.60
2023-03-06T04:48:16.709Z,11.00
2023-03-06T04:49:16.721Z,10.80
2023-03-06T04:50:16.730Z,10.50
2023-03-06T04:51:16.653Z,10.30
2023-03-06T04:52:16.654Z,11.00
2023-03-06T04:53:16.640Z,10.50
2023-03-06T04:54:18.932Z,10.30
2023-03-06T04:55:16.630Z,10.30
2023-03-06T04:56:16.692Z,9.90
2023-03-06T04:57:16.578Z,9.90
2023-03-06T04:58:16.583Z,9.70
2023-03-06T04:59:16.583Z,9.40
2023-03-06T05:00:16.596Z,9.00
2023-03-06T05:01:16.591Z,9.60
2023-03-06T05:02:16.611Z,9.60
2023-03-06T05:03:16.573Z,9.30
2023-03-06T05:04:16.498Z,8.80
2023-03-06T05:05:16.520Z,9.10
2023-03-06T05:06:16.455Z,9.60
2023-03-06T05:07:16.454Z,9.40
2023-03-06T05:08:16.426Z,9.10
2023-03-06T05:09:15.420Z,9.50
2023-03-06T05:10:16.427Z,10.00
2023-03-06T05:11:16.383Z,9.40
2023-03-06T05:12:16.370Z,9.20
2023-03-06T05:13:16.364Z,9.80
2023-03-06T05:14:16.383Z,9.60
2023-03-06T05:15:16.411Z,9.30
2023-03-06T05:16:16.359Z,9.40
2023-03-06T05:17:16.335Z,9.70
2023-03-06T05:18:16.301Z,10.20
2023-03-06T05:19:16.297Z,9.90
2023-03-06T05:20:16.349Z,9.90
2023-03-06T05:21:16.249Z,10.00
2023-03-06T05:22:16.305Z,9.60
2023-03-06T05:23:16.211Z,10.20
2023-03-06T05:24:16.231Z,9.90
2023-03-06T05:25:16.215Z,9.70
2023-03-06T05:26:16.207Z,9.80
2023-03-06T05:27:16.994Z,10.50
2023-03-06T05:28:16.213Z,10.00
2023-03-06T05:29:16.142Z,10.10
2023-03-06T05:30:16.175Z,9.30
2023-03-06T05:31:16.103Z,9.90
2023-03-06T05:32:16.124Z,9.40
2023-03-06T05:33:16.129Z,8.90
2023-03-06T05:34:16.103Z,9.90
2023-03-06T05:35:16.057Z,10.30
2023-03-06T05:36:16.124Z,9.40
2023-03-06T05:37:16.054Z,9.30
2023-03-06T05:38:16.172Z,9.20
2023-03-06T05:39:16.037Z,9.90
2023-03-06T05:40:16.034Z,9.40
2023-03-06T05:41:15.987Z,9.80
2023-03-06T05:42:15.973Z,9.60
2023-03-06T05:43:15.959Z,9.70
2023-03-06T05:44:15.990Z,10.10
2023-03-06T05:45:16.140Z,9.50
2023-03-06T05:46:16.062Z,9.70
2023-03-06T05:47:15.898Z,9.60
2023-03-06T05:48:16.018Z,9.20
2023-03-06T05:49:15.889Z,9.30
2023-03-06T05:50:15.920Z,9.50
2023-03-06T05:51:15.891Z,10.30
2023-03-06T05:52:15.842Z,9.30
2023-03-06T05:53:15.844Z,9.50
2023-03-06T05:54:15.814Z,10.00
2023-03-06T05:55:15.809Z,9.40
2023-03-06T05:56:15.797Z,9.70
2023-03-06T05:57:15.775Z,9.10
2023-03-06T05:58:15.785Z,9.00
2023-03-06T05:59:15.778Z,9.30
2023-03-06T06:00:15.726Z,9.40
2023-03-06T06:01:15.734Z,9.40
2023-03-06T06:02:15.753Z,9.90
2023-03-06T06:03:15.715Z,10.40
2023-03-06T06:04:15.836Z,9.10
2023-03-06T06:05:15.707Z,10.00
2023-03-06T06:06:15.677Z,10.30
2023-03-06T06:07:15.637Z,9.80
2023-03-06T06:08:15.619Z,10.10
2023-03-06T06:09:15.633Z,9.80
2023-03-06T06:10:15.598Z,10.10
2023-03-06T06:11:15.631Z,10.20
2023-03-06T06:12:15.559Z,10.40
2023-03-06T06:13:17.663Z,9.80
2023-03-06T06:14:15.543Z,9.50
2023-03-06T06:15:15.576Z,10.70
2023-03-06T06:16:16.096Z,10.40
2023-03-06T06:17:15.498Z,9.20
2023-03-06T06:18:15.639Z,10.50
2023-03-06T06:19:15.966Z,9.60
2023-03-06T06:20:15.459Z,10.10
2023-03-06T06:21:15.456Z,11.40
2023-03-06T06:22:15.535Z,11.10
2023-03-06T06:23:15.430Z,10.30
2023-03-06T06:24:15.436Z,10.40
2023-03-06T06:25:15.380Z,9.60
2023-03-06T06:26:15.536Z,9.60
2023-03-06T06:27:15.443Z,10.10
2023-03-06T06:28:15.544Z,9.80
2023-03-06T06:29:15.332Z,10.00
2023-03-06T06:30:15.326Z,10.10
2023-03-06T06:31:15.460Z,9.90
2023-03-06T06:32:15.350Z,10.20
2023-03-06T06:33:15.284Z,9.80
2023-03-06T06:34:15.315Z,9.80
2023-03-06T06:35:15.251Z,10.00
2023-03-06T06:36:15.239Z,9.40
2023-03-06T06:37:15.228Z,9.40
2023-03-06T06:38:15.279Z,9.60
2023-03-06T06:39:15.219Z,10.10
2023-03-06T06:40:15.370Z,9.70
2023-03-06T06:42:37.158Z,9.90
2023-03-06T06:43:15.310Z,9.60
2023-03-06T06:44:15.136Z,9.60
2023-03-06T06:45:15.142Z,10.30
2023-03-06T06:46:59.006Z,9.80
2023-03-06T06:47:24.909Z,9.10
2023-03-06T06:48:16.719Z,9.80
2023-03-06T06:49:15.106Z,9.70
2023-03-06T06:50:15.155Z,9.40
2023-03-06T06:51:15.099Z,9.70
2023-03-06T06:52:15.034Z,9.30
2023-03-06T06:53:15.038Z,9.20
2023-03-06T06:54:15.026Z,9.60
2023-03-06T06:55:14.991Z,8.90
2023-03-06T06:56:15.003Z,8.80
2023-03-06T06:57:14.978Z,9.30
2023-03-06T06:58:15.042Z,9.30
2023-03-06T06:59:16.934Z,9.50
2023-03-06T07:00:14.978Z,9.40
2023-03-06T07:01:14.906Z,9.20
2023-03-06T07:02:14.942Z,9.40
2023-03-06T07:03:15.116Z,10.00
2023-03-06T07:04:14.925Z,9.20
2023-03-06T07:05:14.879Z,9.00
2023-03-06T07:06:14.841Z,9.40
2023-03-06T07:07:14.838Z,9.70
2023-03-06T07:08:14.857Z,9.60
2023-03-06T07:09:14.799Z,8.80
2023-03-06T07:10:14.800Z,9.20
2023-03-06T07:11:14.764Z,9.50
2023-03-06T07:12:14.982Z,9.60
2023-03-06T07:13:14.745Z,9.60
2023-03-06T07:14:14.751Z,8.90
2023-03-06T07:15:14.760Z,8.80
2023-03-06T07:16:14.737Z,9.10
2023-03-06T07:17:14.783Z,9.00
2023-03-06T07:18:14.807Z,8.30
2023-03-06T07:19:14.671Z,9.20
2023-03-06T07:20:14.762Z,8.80
2023-03-06T07:21:14.653Z,8.60
2023-03-06T07:22:14.664Z,8.80
2023-03-06T07:23:14.655Z,8.80
2023-03-06T07:24:14.614Z,8.80
2023-03-06T07:25:14.670Z,8.70
2023-03-06T07:26:14.629Z,8.30
2023-03-06T07:27:14.589Z,8.40
2023-03-06T07:28:14.648Z,8.30
2023-03-06T07:29:14.567Z,8.10
2023-03-06T07:30:14.525Z,8.40
2023-03-06T07:31:14.536Z,8.60
2023-03-06T07:32:14.567Z,8.20
2023-03-06T07:33:14.497Z,8.60
2023-03-06T07:34:14.476Z,8.00
2023-03-06T07:35:20.543Z,8.90
2023-03-06T07:36:14.491Z,8.20
2023-03-06T07:37:14.498Z,8.60
2023-03-06T07:38:14.412Z,8.80
2023-03-06T07:39:14.397Z,8.20
2023-03-06T07:40:14.400Z,8.40
2023-03-06T07:41:14.660Z,9.00
2023-03-06T07:42:14.370Z,8.40
2023-03-06T07:43:19.374Z,9.00
2023-03-06T07:44:14.340Z,8.80
2023-03-06T07:45:14.329Z,8.80
2023-03-06T07:46:14.446Z,9.00
2023-03-06T07:47:14.305Z,9.30
2023-03-06T07:48:14.307Z,10.20
2023-03-06T07:49:14.278Z,8.90
2023-03-06T07:50:14.270Z,8.40
2023-03-06T07:51:14.334Z,9.90
2023-03-06T07:52:14.408Z,9.40
2023-03-06T07:53:14.232Z,9.70
2023-03-06T07:54:14.225Z,9.50
2023-03-06T07:55:14.260Z,10.40
2023-03-06T07:56:14.209Z,10.20
2023-03-06T07:57:14.194Z,9.80
2023-03-06T07:58:14.174Z,10.20
2023-03-06T07:59:14.172Z,9.60
2023-03-06T08:00:14.184Z,9.80
2023-03-06T08:01:14.207Z,9.70
2023-03-06T08:02:14.090Z,9.60
2023-03-06T08:03:14.156Z,9.80
2023-03-06T08:04:14.119Z,9.90
2023-03-06T08:05:14.135Z,10.50
2023-03-06T08:06:14.047Z,10.30
2023-03-06T08:07:14.043Z,11.10
2023-03-06T08:08:14.007Z,10.90
2023-03-06T08:09:14.001Z,10.90
2023-03-06T08:10:13.999Z,10.50
2023-03-06T08:11:13.990Z,11.00
2023-03-06T08:12:15.777Z,11.00
2023-03-06T08:13:13.943Z,11.10
2023-03-06T08:14:13.941Z,11.90
2023-03-06T08:15:13.936Z,11.10
2023-03-06T08:16:13.977Z,11.20
2023-03-06T08:17:14.423Z,11.90
2023-03-06T08:18:13.874Z,11.40
2023-03-06T08:19:13.913Z,11.40
2023-03-06T08:20:13.917Z,11.60
2023-03-06T08:21:13.830Z,12.00
2023-03-06T08:22:13.850Z,11.60
2023-03-06T08:23:13.802Z,12.10
2023-03-06T08:24:13.860Z,11.30
2023-03-06T08:25:13.773Z,10.90
2023-03-06T08:26:13.766Z,11.20
2023-03-06T08:27:13.756Z,12.10
2023-03-06T08:28:13.858Z,12.30
2023-03-06T08:29:13.728Z,12.70
2023-03-06T08:30:13.705Z,12.00
2023-03-06T08:31:13.758Z,12.60
2023-03-06T08:32:13.689Z,12.50
2023-03-06T08:33:13.675Z,12.80
2023-03-06T08:34:13.671Z,12.80
2023-03-06T08:35:13.719Z,12.60
2023-03-06T08:36:13.634Z,13.10
2023-03-06T08:37:13.652Z,13.40
2023-03-06T08:38:13.601Z,13.00
2023-03-06T08:39:13.615Z,13.40
2023-03-06T08:40:13.613Z,13.70
2023-03-06T08:41:13.586Z,13.60
2023-03-06T08:42:13.548Z,13.30
2023-03-06T08:43:14.300Z,13.60
2023-03-06T08:44:13.549Z,13.70
2023-03-06T08:45:14.450Z,13.40
2023-03-06T08:46:13.504Z,13.90
2023-03-06T08:47:13.509Z,13.10
2023-03-06T08:48:13.532Z,13.30
2023-03-06T08:49:13.502Z,14.70
2023-03-06T08:50:13.446Z,13.20
2023-03-06T08:51:13.422Z,12.70
2023-03-06T08:52:13.489Z,13.70
2023-03-06T08:53:13.397Z,13.30
2023-03-06T08:54:13.596Z,12.80
2023-03-06T08:55:15.102Z,12.70
2023-03-06T08:56:13.475Z,13.10
2023-03-06T08:57:13.439Z,13.80
2023-03-06T08:58:13.415Z,13.00
2023-03-06T08:59:13.337Z,13.20
2023-03-06T09:00:13.292Z,13.20
2023-03-06T09:01:13.326Z,13.20
2023-03-06T09:02:13.343Z,13.50
2023-03-06T09:03:13.273Z,12.80
2023-03-06T09:04:13.329Z,13.20
2023-03-06T09:05:13.404Z,13.90
2023-03-06T09:06:13.241Z,13.20
2023-03-06T09:07:13.433Z,13.50
2023-03-06T09:08:13.208Z,13.10
2023-03-06T09:09:13.217Z,13.60
2023-03-06T09:10:13.156Z,13.50
2023-03-06T09:11:13.179Z,13.10
2023-03-06T09:12:13.126Z,13.60
2023-03-06T09:13:13.126Z,13.70
2023-03-06T09:14:13.117Z,13.30
2023-03-06T09:15:13.095Z,13.30
2023-03-06T09:16:13.095Z,14.00
2023-03-06T09:17:13.068Z,14.00
2023-03-06T09:18:13.047Z,13.10
2023-03-06T09:19:13.068Z,14.30
2023-03-06T09:20:13.034Z,13.80
2023-03-06T09:21:13.056Z,14.50
2023-03-06T09:22:12.995Z,13.90
2023-03-06T09:23:13.029Z,13.70
2023-03-06T09:24:12.999Z,13.30
2023-03-06T09:25:12.968Z,14.10
2023-03-06T09:26:12.944Z,14.10
2023-03-06T09:27:12.936Z,12.80
2023-03-06T09:28:12.941Z,13.10
2023-03-06T09:29:13.006Z,13.80
2023-03-06T09:30:12.924Z,13.70
2023-03-06T09:31:12.997Z,14.10
2023-03-06T09:32:12.918Z,13.40
2023-03-06T09:33:12.853Z,14.10
2023-03-06T09:34:12.865Z,12.50
2023-03-06T09:35:12.837Z,13.80
2023-03-06T09:36:12.821Z,13.60
2023-03-06T09:37:12.804Z,13.20
2023-03-06T09:38:12.785Z,13.20
2023-03-06T09:39:12.788Z,14.70
2023-03-06T09:40:12.764Z,13.70
2023-03-06T09:41:12.805Z,14.90
2023-03-06T09:42:12.777Z,14.20
2023-03-06T09:43:12.759Z,14.40
2023-03-06T09:44:12.705Z,14.60
2023-03-06T09:45:45.602Z,14.50
2023-03-06T09:46:12.708Z,14.60
2023-03-06T09:47:12.685Z,14.80
2023-03-06T10:03:20.140Z,10.00
2023-03-06T10:04:11.390Z,10.60
2023-03-06T20:57:46.196Z,19.80
2023-03-06T20:58:45.891Z,19.80
2023-03-06T20:59:48.034Z,18.60
2023-03-06T21:00:45.857Z,19.00
2023-03-06T21:01:47.126Z,19.00
2023-03-06T21:03:06.848Z,18.80
2023-03-06T21:03:45.827Z,19.90
2023-03-06T21:04:46.069Z,19.00
2023-03-06T21:05:45.814Z,18.00
2023-03-06T21:06:45.859Z,18.50
2023-03-06T21:07:45.789Z,18.50
2023-03-06T21:08:45.793Z,18.30
2023-03-06T21:09:45.861Z,18.40
2023-03-06T21:10:45.731Z,18.40
2023-03-06T21:11:45.770Z,17.30
2023-03-06T21:12:45.718Z,17.00
2023-03-06T21:13:45.702Z,15.60
2023-03-06T21:14:45.715Z,17.00
2023-03-06T21:15:45.732Z,16.30
2023-03-06T21:16:45.677Z,15.30
2023-03-06T21:17:45.654Z,16.30
2023-03-06T21:18:45.645Z,15.60
2023-03-06T21:19:45.660Z,15.60
2023-03-06T21:20:45.668Z,16.40
2023-03-06T21:21:45.597Z,15.50
2023-03-06T21:22:45.593Z,15.30
2023-03-06T21:23:45.563Z,15.70
2023-03-06T21:24:45.584Z,16.20
2023-03-06T21:25:45.535Z,14.90
2023-03-06T21:26:45.594Z,15.30
2023-03-06T21:27:45.557Z,14.90
2023-03-06T21:28:45.541Z,14.30
2023-03-06T21:29:45.484Z,15.30
2023-03-06T21:30:45.477Z,14.90
2023-03-06T21:31:45.504Z,14.70
2023-03-06T21:32:45.478Z,14.70
2023-03-06T21:33:45.478Z,14.10
2023-03-06T21:34:45.432Z,14.50
2023-03-06T21:35:45.460Z,15.40
2023-03-06T21:36:45.465Z,15.70
2023-03-06T21:37:45.405Z,15.40
2023-03-06T21:38:45.408Z,14.20
2023-03-06T21:39:45.360Z,14.50
2023-03-06T21:40:45.399Z,14.50
2023-03-06T21:41:45.357Z,14.30
2023-03-06T21:42:45.325Z,13.70
2023-03-06T21:43:45.315Z,14.20
2023-03-06T21:44:45.296Z,15.00
2023-03-06T21:45:45.362Z,14.80
2023-03-06T21:46:45.285Z,14.20
2023-03-06T21:47:45.276Z,14.40
2023-03-06T21:48:45.251Z,15.20
2023-03-06T21:49:45.259Z,14.50
2023-03-06T21:50:45.217Z,14.20
2023-03-06T21:51:45.201Z,15.20
2023-03-06T21:52:45.202Z,14.50
2023-03-06T21:53:45.334Z,12.80
2023-03-06T21:54:45.209Z,14.40
2023-03-06T21:55:45.179Z,14.80
2023-03-06T21:56:45.123Z,14.70
2023-03-06T21:57:45.133Z,14.90
2023-03-06T21:58:45.095Z,15.10
2023-03-06T21:59:45.092Z,14.60
2023-03-06T22:00:45.194Z,13.60
2023-03-06T22:01:45.123Z,14.20
2023-03-06T22:02:45.160Z,14.10
2023-03-06T22:03:45.192Z,14.30
2023-03-06T22:04:45.027Z,15.00
2023-03-06T22:05:45.049Z,14.80
2023-03-06T22:06:45.075Z,15.00
2023-03-06T22:07:45.006Z,14.80
2023-03-06T22:08:44.963Z,14.90
2023-03-06T22:09:45.028Z,14.20
2023-03-06T22:10:46.949Z,15.50
2023-03-06T22:11:44.945Z,15.20
2023-03-06T22:12:45.019Z,15.70
2023-03-06T22:13:44.922Z,16.00
2023-03-06T22:14:44.917Z,15.80
2023-03-06T22:15:44.899Z,15.20
2023-03-06T22:16:45.031Z,15.70
2023-03-06T22:17:44.926Z,15.30
2023-03-06T22:18:44.839Z,15.10
2023-03-06T22:19:44.875Z,15.60
2023-03-06T22:20:44.819Z,15.20
2023-03-06T22:21:44.831Z,16.80
2023-03-06T22:22:44.878Z,15.70
2023-03-06T22:23:44.820Z,16.30
2023-03-06T22:24:44.801Z,15.20
2023-03-06T22:25:44.801Z,16.40
2023-03-06T22:26:44.732Z,16.50
2023-03-06T22:27:44.838Z,15.10
2023-03-06T22:37:37.450Z,17.10
2023-03-06T22:38:57.999Z,17.40
2023-03-06T22:39:38.436Z,16.60
2023-03-06T22:40:38.422Z,17.30
